Jinzhou, China
Current Conditions -  °F | °C
As of 2:30 AM on Sunday 26 Oct 2014 (Local Time) from ZYTL Reporting Station
Clear Clear  
Wind Chill: 64°   Ceiling: Unl
Heat Index: 64°   Visibility: 4mi
Dew Point: 55°   Wind: 7mph
Humidity: 73%   Direction: 240°WSW
Pressure: 29.94"   Gusts: NA
Location:  39.1°N, 121.72°E
Report Text: ZYTL 251830Z 24003MPS 6000 NSC 18/13 Q1014 NOSIG
Loading
Personal Weather Stations






























Interactive Weather Map
Tropical Storm Tracking
New forecast layout! Learn more

10-Day Weather Forecast

Advertisements
Track Severe Weather on mobile